Schedule Details


Flight Number: CTN398
Departure: Cilipi (LDDU) at 17:35
Arrival: Tessera (LIPZ) at 19:05
Route: AMUGO L611 UMSON M730 KEGED KEG1A ANC L612 CHI

Weather Information
LDDU 172200Z 13003KT CAVOK 19/17 Q1018
LIPZ 172220Z 10003KT 070V140 CAVOK 24/19 Q1017 NOSIG
Schedule Frequency

Route Map